LEMR
43.25.83N 005.49.60W
IN73CK aprs.fi
zuletzt gehoert:
2021-11-30T14:30:06Z
zuerst gehoert:
2020-02-23T15:43:24Z

APRS Llanera [IN73CK], 0 Stunde(n), LEMR [15:39:31, 0s].
LEMR 43.25.83N 005.49.60WIN73CK 0.701km 331°NNW14:30:06ZAerodromo de la Morgal: LEAS 301330Z 31004KT 270V350 9999 FEW038 SCT045 14/08 Q1026 NOSIG=
LEGM 43.26.15N 005.49.84WIN73CK 1.386km 332°NNW14:30:05ZHelipuerto de La Morgal: LEAS 301330Z 31004KT 270V350 9999 FEW038 SCT045 14/08 Q1026 NOSIG=
EA1ABW 43.24.77N 005.47.77WIN73CJ 2.508km 122°ESE14:30:31ZMMDVM MMDVM HS Hat 439.8250/439.8250 CC1
LEHU 43.22.63N 005.49.57WIN73CJ 5.323km 183°S14:30:05ZHelipuerto del HUCA: LEAS 301330Z 31004KT 270V350 9999 FEW038 SCT045 14/08 Q1026 NOSIG=
ED1ZAU 43.23.04N 005.52.75WIN73BJ 6.457km 225°SW14:32:34ZRD625 438.5000/430.9000 CC1
EA1YR 43.22.09N 005.51.86WIN73BI 7.146km 208°SSW14:32:17ZMMDVM DVS 434.3500/434.3500 CC1
33D00 43.21.63N 005.51.13WIN73BI 7.553km 198°SSW14:02:23Z33-D-00 Protección Civil REMER / Delegación del Gobierno en Asturias
EA1L 43.20.37N 005.51.13WIN73BI 9.778km 194°SSW14:30:09Zea1l@ure.es V=13.6V,T=??.?C
Wind 098°/001kn, Böen bis 003kn, Temp 15.56c, Regen 0.0mm, letzte 24h 0.5mm, seit 0h 0.5mm, Baro 1023.6h, Hum: 69%(2EA1L-13)
EB1CAM 43.19.73N 005.52.44WIN73BH 11.470km 201°SSW14:36:56ZEB1CAM por ahi(3EB1CAM-9)
EA1HWX 43.19.29N 005.50.96WIN73BH 11.706km 191°S14:30:35ZDMO - UHF 439.7250/431.0000 CC11
EB1AD 43.29.80N 005.42.75WIN73DL 11.941km 48°NE14:39:17ZCarlos(3EB1AD-9)
ED1ZAY 43.29.47N 005.56.54WIN73AL 12.164km 307°NW14:32:35ZRD625 438.3000/430.7000 CC1
ED1ZAE 43.27.99N 005.40.54WIN73DL 12.720km 69°ENE14:37:04Z2m Voice 145.5875 -0.600 Mhz(3ED1ZAE-C)
WIDE3-3 ESAS3-3 IN73DL WWW.EA1URG.ORG(2ED1ZAE-3)
ED1ZAS 43.27.52N 005.40.17WIN73DL 12.912km 73°ENE14:32:35ZRD985 438.2250/430.6250 CC1
EA1AHA 43.32.74N 005.54.36WIN73BN 15.015km 333°NNW14:30:30ZWind 000°/002kn, Böen bis 003kn, Temp 16.67c, Regen 0.0mm, letzte 24h 1.0mm, seit 0h 1.0mm, Baro 1027.1h, Hum: 57%(3EA1AHA-13)
MMDVM MMDVM HS Hat 432.0000/432.0000 CC1(2EA1AHA)
EB1TK 43.32.22N 005.42.32WIN73DM 15.659km 37°NE14:35:20ZWind 266°/004kn, Böen bis 007kn, Temp 15.00c, Regen 0.0mm, letzte 24h 1.8mm, seit 0h 1.8mm, Baro 1028.0h, Hum: 69%(3EB1TK-13)
EA1FFA 43.31.53N 005.40.64WIN73DM 16.212km 46°NE14:31:53ZMMDVM MMDVM HS Hat 438.8000/438.8000 CC1
EA1DZR 43.31.48N 005.40.00WIN73EM 16.771km 49°NE14:31:00ZMMDVM DVS 434.3500/434.3500 CC1
LEEL 43.32.98N 005.41.71WIN73DN 17.254km 36°NE14:30:07ZHelipuerto de El Musel: LEAS 301330Z 31004KT 270V350 9999 FEW038 SCT045 14/08 Q1026 NOSIG=
EA1FLQ 43.22.00N 005.36.35WIN73EI 18.665km 110°ESE14:31:15ZMMDVM DVMega 430.9750/430.9750 CC1
EB1GEM 43.30.00N 005.36.07WIN73EM 19.733km 65°ENE14:28:33ZWX3in1Plus2.0 U=13.3V,T=??.?C/??.?F(3EB1GEM-3)
EA1IMW 43.14.36N 005.46.93WIN73CF 20.897km 171°S14:31:02ZGRUPO RADIO GALENA (GRG) 433.4500/433.4500 CC1
EB1DGC 43.12.60N 005.45.59WIN73CF 24.431km 168°SSE14:30:08ZMMDVM MMDVM HS Hat 433.4500/433.4500 CC1
EA1JBL 43.12.28N 005.47.42WIN73CE 24.612km 174°S14:32:03ZMMDVM DVMega 435.3000/435.3000 CC1
EA1HWA 43.12.00N 005.47.40WIN73CE 25.150km 174°S14:31:51ZMMDVM MMDVM HS Hat 433.4500/433.4500 CC1
EA1HJA 43.28.10N 005.30.45WIN73FL 25.892km 79°E14:32:06Z IN73FL WX3IN1+ 2.0 - V=14.0V,TX TEMP=42.9C
EA1HJA@URE.ES(2EA1HJA-2)
EA1RCG 43.09.45N 005.49.78WIN73CD 29.723km 181°S14:30:39ZGRUPO RADIO GALENA (GRG) 433.4500/433.4500 CC1
EA1JAY 43.29.33N 005.26.78WIN73GL 31.194km 77°ENE14:30:08Z434.525MHz Nodo TETRA DMO(3EA1JAY-4)
EA1JAY(2EA1JAY-2)
EA1FHR 43.28.72N 005.26.41WIN73GL 31.430km 79°E14:31:11ZMMDVM MMDVM HS Hat 439.1500/439.1500 CC1
EA1HWD 43.28.96N 005.26.30WIN73GL 31.675km 78°ENE14:31:20Z144.575FM Local frecuency VHF. 434.2500/434.2500 CC1
ED1ZAD 43.07.90N 005.38.52WIN73ED 35.715km 156°SSE14:21:13ZED1ZAD-3 APRS Digi/Igate(3ED1ZAD-3)
EC1KV 43.34.01N 006.16.01WIN63UN 39.141km 294°WNW14:37:22Z VOLT.=14.5 V - TEMP.=??.? C(3EC1KV-1)
EA1JBU 43.30.80N 005.16.20WIN73IM 45.649km 77°ENE14:15:17ZEA1JBU(3EA1JBU-2)
EA1JBE 43.30.90N 005.16.15WIN73IM 45.767km 77°ENE14:15:22ZEA1JBU(3EA1JBE-13)
MAIN QTH http://qrz.com/db/ea1jbe(2EA1JBE-1)
LETN 43.20.05N 006.22.69WIN63TI 46.022km 258°WSW14:30:05ZAerodromo de La Curiscada (Tineo): LEAS 301330Z 31004KT 270V350 9999 FEW038 SCT045 14/08 Q1026 NOSIG=

aprs.pl 5.0.011w DL3EL © 2006-2021 [1162699]